Pinlon Star — V7QC5 — position and weather

sailwx.info

Track history (hours):
 
Tides and Currents Weather Stations Pressure Air Temp Water Temp Dewpoint Dewpoint Depression Visibility Wind Speed Wind Dir Waves Ship Positions

Pinlon Star

Last reported at 2017-Oct-07 01:14 UTC. Time now 2017-Nov-25 00:16 UTC.
Position N 01°15' E 103°53'.
Warning: this ship's position is 48 days out of date.

Length 260 m; draft 7.8 m.

Type: Cargo ship. MMSI: 538003330.

Date/timePositionNaut miles runAvg speedWind from/ knotsBaromVisibWave heightAir tempDewpointWater temp
2017-Oct-07 01:14N 01°15' E 103°53'0 0.0
2017-Oct-07 00:49N 01°15' E 103°53'0 0.0
2017-Oct-06 23:10N 01°15' E 103°53'0 0.0
2017-Oct-06 22:58N 01°15' E 103°53'0 0.0
2017-Oct-06 21:25N 01°15' E 103°53'0 0.3
2017-Oct-06 20:51N 01°15' E 103°53'0 0.0
2017-Oct-06 20:22N 01°15' E 103°53'0 0.0
2017-Oct-06 19:41N 01°15' E 103°53'0 0.0
2017-Oct-06 19:26N 01°15' E 103°53'0 0.0
2017-Oct-06 18:57N 01°15' E 103°53'0 0.0
2017-Oct-06 18:29N 01°15' E 103°53'0 0.0
2017-Oct-06 17:20N 01°15' E 103°53'0 0.0
2017-Oct-06 16:54N 01°15' E 103°53'0 0.0
2017-Oct-06 15:54N 01°15' E 103°53'0 0.0
2017-Oct-06 14:40N 01°15' E 103°53'513.9
2017-Oct-06 14:20N 01°14' E 103°58'3 9.7
2017-Oct-06 14:00N 01°14' E 103°54'1 2.6
2017-Oct-06 13:26N 01°15' E 103°53'0 0.0
2017-Oct-06 11:45N 01°15' E 103°53'0 0.0
2017-Oct-06 11:21N 01°15' E 103°53'0 0.2
2017-Oct-06 10:47N 01°15' E 103°53'0 0.2
2017-Oct-06 10:23N 01°15' E 103°53'0 0.1
2017-Oct-06 09:56N 01°15' E 103°53'0 0.0
2017-Oct-06 09:26N 01°15' E 103°53'0 0.0
2017-Oct-06 08:59N 01°15' E 103°53'0 0.4
2017-Oct-06 08:29N 01°15' E 103°53'0 0.0
2017-Oct-06 07:50N 01°15' E 103°53'0 0.6
2017-Oct-06 07:30N 01°15' E 103°53'0 0.3
2017-Oct-06 06:56N 01°15' E 103°53'0 0.4
2017-Oct-06 06:29N 01°15' E 103°53'0 0.3
2017-Oct-06 05:53N 01°15' E 103°53'0 0.0
2017-Oct-06 05:26N 01°15' E 103°53'0 0.1
2017-Oct-06 04:56N 01°15' E 103°53'0 0.4
2017-Oct-06 04:25N 01°15' E 103°53'0 0.0
2017-Oct-06 03:45N 01°15' E 103°53'0 0.1
2017-Oct-06 01:14N 01°15' E 103°53'0 0.0
2017-Oct-06 00:56N 01°15' E 103°53'0 0.0
2017-Oct-06 00:26N 01°15' E 103°53'0 0.0
2017-Oct-05 23:56N 01°15' E 103°53'0 0.1
2017-Oct-05 23:26N 01°15' E 103°53'0 0.1
2017-Oct-05 22:56N 01°15' E 103°53'0 0.1
2017-Oct-05 22:14N 01°15' E 103°53'0 0.1
2017-Oct-05 21:56N 01°15' E 103°53'0 0.1
2017-Oct-05 21:23N 01°15' E 103°53'0 0.0
2017-Oct-05 20:38N 01°15' E 103°53'0 0.3
2017-Oct-05 20:26N 01°15' E 103°53'0 0.1
2017-Oct-05 19:50N 01°15' E 103°53'0 0.0
2017-Oct-05 19:11N 01°15' E 103°53'0 0.0
2017-Oct-05 18:44N 01°15' E 103°53'0 0.0
2017-Oct-05 18:14N 01°15' E 103°53'0 0.0
2017-Oct-05 17:41N 01°15' E 103°53'0 0.0
2017-Oct-05 17:23N 01°15' E 103°53'0 0.1
2017-Oct-05 16:56N 01°15' E 103°53'5 3.5
2017-Oct-05 15:30N 01°12' E 103°49'4 8.1
2017-Oct-05 15:00N 01°16' E 103°48'0 0.1
2017-Oct-05 14:15N 01°16' E 103°47'0 0.0
2017-Oct-05 14:00N 01°16' E 103°47'0 0.0
2017-Oct-05 13:24N 01°16' E 103°47'0 0.0
2017-Oct-05 12:57N 01°16' E 103°47'0 0.1
2017-Oct-05 12:30N 01°16' E 103°48'0 0.1
2017-Oct-05 12:00N 01°16' E 103°47'0 0.0
2017-Oct-05 11:30N 01°16' E 103°47'0 0.1
2017-Oct-05 11:00N 01°16' E 103°48'0 0.0
2017-Oct-05 10:30N 01°16' E 103°48'0 0.1
2017-Oct-05 10:00N 01°16' E 103°47'0 0.1
2017-Oct-05 09:30N 01°16' E 103°48'0 0.1
2017-Oct-05 09:00N 01°16' E 103°47'0 0.0
2017-Oct-05 08:27N 01°16' E 103°47'0 0.0
2017-Oct-05 08:00N 01°16' E 103°47'0 0.0
2017-Oct-05 07:30N 01°16' E 103°47'0 0.1
2017-Oct-05 07:00N 01°16' E 103°48'0 0.1
2017-Oct-05 06:24N 01°16' E 103°47'0 0.0
2017-Oct-05 06:00N 01°16' E 103°47'0 0.0
2017-Oct-05 05:30N 01°16' E 103°47'0 0.0
2017-Oct-05 05:00N 01°16' E 103°47'0 0.1
2017-Oct-05 04:30N 01°16' E 103°48'0 0.0
2017-Oct-05 04:00N 01°16' E 103°48'0 0.0
2017-Oct-05 03:30N 01°16' E 103°48'0 0.1
2017-Oct-05 02:54N 01°16' E 103°47'0 0.0
2017-Oct-05 02:30N 01°16' E 103°47'0 0.0
2017-Oct-05 02:00N 01°16' E 103°47'0 0.0
2017-Oct-05 01:30N 01°16' E 103°47'0 0.1
2017-Oct-05 01:00N 01°16' E 103°48'0 0.0
2017-Oct-05 00:27N 01°16' E 103°48'0 0.1
2017-Oct-05 00:00N 01°16' E 103°47'0 0.0
2017-Oct-04 23:30N 01°16' E 103°47'0 0.0
2017-Oct-04 23:00N 01°16' E 103°47'0 0.1
2017-Oct-04 22:24N 01°16' E 103°48'0 0.0
2017-Oct-04 22:00N 01°16' E 103°48'0 0.1
2017-Oct-04 21:27N 01°16' E 103°47'0 0.0
2017-Oct-04 21:00N 01°16' E 103°47'0 0.0
2017-Oct-04 20:30N 01°16' E 103°47'0 0.0
2017-Oct-04 19:57N 01°16' E 103°47'0 0.1
2017-Oct-04 19:30N 01°16' E 103°48'0 0.0
2017-Oct-04 18:54N 01°16' E 103°48'0 0.0
2017-Oct-04 18:30N 01°16' E 103°48'0 0.0
2017-Oct-04 18:00N 01°16' E 103°48'0 0.0
2017-Oct-04 17:27N 01°16' E 103°48'0 0.1
2017-Oct-04 17:00N 01°16' E 103°47'0 0.0
2017-Oct-04 16:30N 01°16' E 103°47'0 0.1
2017-Oct-04 16:00N 01°16' E 103°48'0 0.1
2017-Oct-04 15:30N 01°16' E 103°47'0 0.0
2017-Oct-04 15:00N 01°16' E 103°47'0 0.3
2017-Oct-04 14:30N 01°16' E 103°48'2 4.5
2017-Oct-04 14:00N 01°15' E 103°46'4 8.6
2017-Oct-04 13:30N 01°13' E 103°42'4 8.2
2017-Oct-04 13:00N 01°12' E 103°38'3 5.2
2017-Oct-04 12:30N 01°12' E 103°35'4 7.2
2017-Oct-04 12:00N 01°10' E 103°32'3 5.5
2017-Oct-04 11:30N 01°10' E 103°29'2 3.1
2017-Oct-04 11:00N 01°10' E 103°27'1 1.8
2017-Oct-04 10:12N 01°09' E 103°29'1 1.6
2017-Oct-04 09:15N 01°09' E 103°30'1 3.4
2017-Oct-04 09:00N 01°10' E 103°29'3 5.5
2017-Oct-04 08:30N 01°10' E 103°27'3 5.2
2017-Oct-04 08:00N 01°11' E 103°24'3 5.7
2017-Oct-04 07:27N 01°13' E 103°22'3 5.8
2017-Oct-04 06:52N 01°16' E 103°19'  
Track history (hours):
 
Tides and Currents Weather Stations Pressure Air Temp Water Temp Dewpoint Dewpoint Depression Visibility Wind Speed Wind Dir Waves Ship Positions

Pinlon Star

Last reported at 2017-Oct-07 01:14 UTC. Time now 2017-Nov-25 00:16 UTC.
Position N 01°15' E 103°53'.
Warning: this ship's position is 48 days out of date.

Length 260 m; draft 7.8 m.

Type: Cargo ship. MMSI: 538003330.

Date/timePositionNaut miles runAvg speedWind from/ knotsBaromVisibWave heightAir tempDewpointWater temp
2017-Oct-07 01:14N 01°15' E 103°53'0 0.0
2017-Oct-07 00:49N 01°15' E 103°53'0 0.0
2017-Oct-06 23:10N 01°15' E 103°53'0 0.0
2017-Oct-06 22:58N 01°15' E 103°53'0 0.0
2017-Oct-06 21:25N 01°15' E 103°53'0 0.3
2017-Oct-06 20:51N 01°15' E 103°53'0 0.0
2017-Oct-06 20:22N 01°15' E 103°53'0 0.0
2017-Oct-06 19:41N 01°15' E 103°53'0 0.0
2017-Oct-06 19:26N 01°15' E 103°53'0 0.0
2017-Oct-06 18:57N 01°15' E 103°53'0 0.0
2017-Oct-06 18:29N 01°15' E 103°53'0 0.0
2017-Oct-06 17:20N 01°15' E 103°53'0 0.0
2017-Oct-06 16:54N 01°15' E 103°53'0 0.0
2017-Oct-06 15:54N 01°15' E 103°53'0 0.0
2017-Oct-06 14:40N 01°15' E 103°53'513.9
2017-Oct-06 14:20N 01°14' E 103°58'3 9.7
2017-Oct-06 14:00N 01°14' E 103°54'1 2.6
2017-Oct-06 13:26N 01°15' E 103°53'0 0.0
2017-Oct-06 11:45N 01°15' E 103°53'0 0.0
2017-Oct-06 11:21N 01°15' E 103°53'0 0.2
2017-Oct-06 10:47N 01°15' E 103°53'0 0.2
2017-Oct-06 10:23N 01°15' E 103°53'0 0.1
2017-Oct-06 09:56N 01°15' E 103°53'0 0.0
2017-Oct-06 09:26N 01°15' E 103°53'0 0.0
2017-Oct-06 08:59N 01°15' E 103°53'0 0.4
2017-Oct-06 08:29N 01°15' E 103°53'0 0.0
2017-Oct-06 07:50N 01°15' E 103°53'0 0.6
2017-Oct-06 07:30N 01°15' E 103°53'0 0.3
2017-Oct-06 06:56N 01°15' E 103°53'0 0.4
2017-Oct-06 06:29N 01°15' E 103°53'0 0.3
2017-Oct-06 05:53N 01°15' E 103°53'0 0.0
2017-Oct-06 05:26N 01°15' E 103°53'0 0.1
2017-Oct-06 04:56N 01°15' E 103°53'0 0.4
2017-Oct-06 04:25N 01°15' E 103°53'0 0.0
2017-Oct-06 03:45N 01°15' E 103°53'0 0.1
2017-Oct-06 01:14N 01°15' E 103°53'0 0.0
2017-Oct-06 00:56N 01°15' E 103°53'0 0.0
2017-Oct-06 00:26N 01°15' E 103°53'0 0.0
2017-Oct-05 23:56N 01°15' E 103°53'0 0.1
2017-Oct-05 23:26N 01°15' E 103°53'0 0.1
2017-Oct-05 22:56N 01°15' E 103°53'0 0.1
2017-Oct-05 22:14N 01°15' E 103°53'0 0.1
2017-Oct-05 21:56N 01°15' E 103°53'0 0.1
2017-Oct-05 21:23N 01°15' E 103°53'0 0.0
2017-Oct-05 20:38N 01°15' E 103°53'0 0.3
2017-Oct-05 20:26N 01°15' E 103°53'0 0.1
2017-Oct-05 19:50N 01°15' E 103°53'0 0.0
2017-Oct-05 19:11N 01°15' E 103°53'0 0.0
2017-Oct-05 18:44N 01°15' E 103°53'0 0.0
2017-Oct-05 18:14N 01°15' E 103°53'0 0.0
2017-Oct-05 17:41N 01°15' E 103°53'0 0.0
2017-Oct-05 17:23N 01°15' E 103°53'0 0.1
2017-Oct-05 16:56N 01°15' E 103°53'5 3.5
2017-Oct-05 15:30N 01°12' E 103°49'4 8.1
2017-Oct-05 15:00N 01°16' E 103°48'0 0.1
2017-Oct-05 14:15N 01°16' E 103°47'0 0.0
2017-Oct-05 14:00N 01°16' E 103°47'0 0.0
2017-Oct-05 13:24N 01°16' E 103°47'0 0.0
2017-Oct-05 12:57N 01°16' E 103°47'0 0.1
2017-Oct-05 12:30N 01°16' E 103°48'0 0.1
2017-Oct-05 12:00N 01°16' E 103°47'0 0.0
2017-Oct-05 11:30N 01°16' E 103°47'0 0.1
2017-Oct-05 11:00N 01°16' E 103°48'0 0.0
2017-Oct-05 10:30N 01°16' E 103°48'0 0.1
2017-Oct-05 10:00N 01°16' E 103°47'0 0.1
2017-Oct-05 09:30N 01°16' E 103°48'0 0.1
2017-Oct-05 09:00N 01°16' E 103°47'0 0.0
2017-Oct-05 08:27N 01°16' E 103°47'0 0.0
2017-Oct-05 08:00N 01°16' E 103°47'0 0.0
2017-Oct-05 07:30N 01°16' E 103°47'0 0.1
2017-Oct-05 07:00N 01°16' E 103°48'0 0.1
2017-Oct-05 06:24N 01°16' E 103°47'0 0.0
2017-Oct-05 06:00N 01°16' E 103°47'0 0.0
2017-Oct-05 05:30N 01°16' E 103°47'0 0.0
2017-Oct-05 05:00N 01°16' E 103°47'0 0.1
2017-Oct-05 04:30N 01°16' E 103°48'0 0.0
2017-Oct-05 04:00N 01°16' E 103°48'0 0.0
2017-Oct-05 03:30N 01°16' E 103°48'0 0.1
2017-Oct-05 02:54N 01°16' E 103°47'0 0.0
2017-Oct-05 02:30N 01°16' E 103°47'0 0.0
2017-Oct-05 02:00N 01°16' E 103°47'0 0.0
2017-Oct-05 01:30N 01°16' E 103°47'0 0.1
2017-Oct-05 01:00N 01°16' E 103°48'0 0.0
2017-Oct-05 00:27N 01°16' E 103°48'0 0.1
2017-Oct-05 00:00N 01°16' E 103°47'0 0.0
2017-Oct-04 23:30N 01°16' E 103°47'0 0.0
2017-Oct-04 23:00N 01°16' E 103°47'0 0.1
2017-Oct-04 22:24N 01°16' E 103°48'0 0.0
2017-Oct-04 22:00N 01°16' E 103°48'0 0.1
2017-Oct-04 21:27N 01°16' E 103°47'0 0.0
2017-Oct-04 21:00N 01°16' E 103°47'0 0.0
2017-Oct-04 20:30N 01°16' E 103°47'0 0.0
2017-Oct-04 19:57N 01°16' E 103°47'0 0.1
2017-Oct-04 19:30N 01°16' E 103°48'0 0.0
2017-Oct-04 18:54N 01°16' E 103°48'0 0.0
2017-Oct-04 18:30N 01°16' E 103°48'0 0.0
2017-Oct-04 18:00N 01°16' E 103°48'0 0.0
2017-Oct-04 17:27N 01°16' E 103°48'0 0.1
2017-Oct-04 17:00N 01°16' E 103°47'0 0.0
2017-Oct-04 16:30N 01°16' E 103°47'0 0.1
2017-Oct-04 16:00N 01°16' E 103°48'0 0.1
2017-Oct-04 15:30N 01°16' E 103°47'0 0.0
2017-Oct-04 15:00N 01°16' E 103°47'0 0.3
2017-Oct-04 14:30N 01°16' E 103°48'2 4.5
2017-Oct-04 14:00N 01°15' E 103°46'4 8.6
2017-Oct-04 13:30N 01°13' E 103°42'4 8.2
2017-Oct-04 13:00N 01°12' E 103°38'3 5.2
2017-Oct-04 12:30N 01°12' E 103°35'4 7.2
2017-Oct-04 12:00N 01°10' E 103°32'3 5.5
2017-Oct-04 11:30N 01°10' E 103°29'2 3.1
2017-Oct-04 11:00N 01°10' E 103°27'1 1.8
2017-Oct-04 10:12N 01°09' E 103°29'1 1.6
2017-Oct-04 09:15N 01°09' E 103°30'1 3.4
2017-Oct-04 09:00N 01°10' E 103°29'3 5.5
2017-Oct-04 08:30N 01°10' E 103°27'3 5.2
2017-Oct-04 08:00N 01°11' E 103°24'3 5.7
2017-Oct-04 07:27N 01°13' E 103°22'3 5.8
2017-Oct-04 06:52N 01°16' E 103°19'  

Dump ship's entire track history